sensor_id;sensor_type;location;lat;lon;timestamp;P1;durP1;ratioP1;P2;durP2;ratioP2
3959;SDS011;1994;48.640;8.894;2022-09-21T00:01:08;5.50;;;3.37;;
3959;SDS011;1994;48.640;8.894;2022-09-21T00:03:40;6.83;;;3.57;;
3959;SDS011;1994;48.640;8.894;2022-09-21T00:06:08;4.30;;;2.83;;
3959;SDS011;1994;48.640;8.894;2022-09-21T00:08:45;5.73;;;3.03;;
3959;SDS011;1994;48.640;8.894;2022-09-21T00:11:23;4.90;;;3.60;;
3959;SDS011;1994;48.640;8.894;2022-09-21T00:13:54;8.70;;;3.47;;
3959;SDS011;1994;48.640;8.894;2022-09-21T00:16:24;3.47;;;3.03;;
3959;SDS011;1994;48.640;8.894;2022-09-21T00:18:51;5.10;;;2.80;;
3959;SDS011;1994;48.640;8.894;2022-09-21T00:21:18;4.33;;;3.17;;
3959;SDS011;1994;48.640;8.894;2022-09-21T00:23:44;4.10;;;3.67;;
3959;SDS011;1994;48.640;8.894;2022-09-21T00:26:11;3.23;;;2.67;;
3959;SDS011;1994;48.640;8.894;2022-09-21T00:28:44;7.00;;;3.03;;
3959;SDS011;1994;48.640;8.894;2022-09-21T00:31:12;4.87;;;3.43;;
3959;SDS011;1994;48.640;8.894;2022-09-21T00:33:42;7.23;;;3.30;;
3959;SDS011;1994;48.640;8.894;2022-09-21T00:36:09;6.90;;;4.00;;
3959;SDS011;1994;48.640;8.894;2022-09-21T00:38:43;4.60;;;3.10;;
3959;SDS011;1994;48.640;8.894;2022-09-21T00:41:13;7.40;;;3.33;;
3959;SDS011;1994;48.640;8.894;2022-09-21T00:43:41;4.60;;;2.70;;
3959;SDS011;1994;48.640;8.894;2022-09-21T00:46:34;3.07;;;2.60;;
3959;SDS011;1994;48.640;8.894;2022-09-21T00:49:01;9.53;;;3.07;;
3959;SDS011;1994;48.640;8.894;2022-09-21T00:51:27;6.00;;;3.27;;
3959;SDS011;1994;48.640;8.894;2022-09-21T00:53:55;6.40;;;3.30;;
3959;SDS011;1994;48.640;8.894;2022-09-21T00:56:26;2.83;;;2.60;;
3959;SDS011;1994;48.640;8.894;2022-09-21T00:58:53;4.40;;;2.60;;
3959;SDS011;1994;48.640;8.894;2022-09-21T01:01:19;3.53;;;2.63;;
3959;SDS011;1994;48.640;8.894;2022-09-21T01:03:46;4.30;;;3.30;;
3959;SDS011;1994;48.640;8.894;2022-09-21T01:06:15;6.43;;;3.27;;
3959;SDS011;1994;48.640;8.894;2022-09-21T01:08:44;14.30;;;3.73;;
3959;SDS011;1994;48.640;8.894;2022-09-21T01:11:27;3.60;;;2.97;;
3959;SDS011;1994;48.640;8.894;2022-09-21T01:23:04;4.20;;;3.20;;
3959;SDS011;1994;48.640;8.894;2022-09-21T01:25:41;4.20;;;2.90;;
3959;SDS011;1994;48.640;8.894;2022-09-21T01:29:14;3.70;;;3.20;;
3959;SDS011;1994;48.640;8.894;2022-09-21T01:31:51;4.27;;;2.77;;
3959;SDS011;1994;48.640;8.894;2022-09-21T01:37:19;4.80;;;2.57;;
3959;SDS011;1994;48.640;8.894;2022-09-21T01:39:57;4.73;;;3.23;;
3959;SDS011;1994;48.640;8.894;2022-09-21T01:42:26;10.60;;;3.20;;
3959;SDS011;1994;48.640;8.894;2022-09-21T01:44:56;13.70;;;2.27;;
3959;SDS011;1994;48.640;8.894;2022-09-21T01:47:25;5.43;;;3.50;;
3959;SDS011;1994;48.640;8.894;2022-09-21T01:49:55;5.03;;;3.40;;
3959;SDS011;1994;48.640;8.894;2022-09-21T01:54:59;4.60;;;2.53;;
3959;SDS011;1994;48.640;8.894;2022-09-21T01:57:50;9.03;;;3.60;;
3959;SDS011;1994;48.640;8.894;2022-09-21T02:00:16;3.47;;;2.50;;
3959;SDS011;1994;48.640;8.894;2022-09-21T02:02:49;5.57;;;3.40;;
3959;SDS011;1994;48.640;8.894;2022-09-21T02:06:07;3.67;;;2.70;;
3959;SDS011;1994;48.640;8.894;2022-09-21T02:08:35;3.33;;;2.67;;
3959;SDS011;1994;48.640;8.894;2022-09-21T02:11:02;4.40;;;3.10;;
3959;SDS011;1994;48.640;8.894;2022-09-21T02:13:31;3.57;;;2.60;;
3959;SDS011;1994;48.640;8.894;2022-09-21T02:21:28;4.33;;;2.60;;
3959;SDS011;1994;48.640;8.894;2022-09-21T02:26:47;5.77;;;2.60;;
3959;SDS011;1994;48.640;8.894;2022-09-21T02:35:16;6.10;;;3.17;;
3959;SDS011;1994;48.640;8.894;2022-09-21T02:38:06;4.10;;;2.43;;
3959;SDS011;1994;48.640;8.894;2022-09-21T02:40:39;3.73;;;2.57;;
3959;SDS011;1994;48.640;8.894;2022-09-21T02:46:13;5.10;;;3.00;;
3959;SDS011;1994;48.640;8.894;2022-09-21T02:49:08;5.30;;;3.07;;
3959;SDS011;1994;48.640;8.894;2022-09-21T02:51:43;9.40;;;3.30;;
3959;SDS011;1994;48.640;8.894;2022-09-21T02:54:16;4.30;;;2.60;;
3959;SDS011;1994;48.640;8.894;2022-09-21T02:56:49;7.37;;;3.20;;
3959;SDS011;1994;48.640;8.894;2022-09-21T02:59:16;5.23;;;2.60;;
3959;SDS011;1994;48.640;8.894;2022-09-21T03:01:42;4.33;;;3.30;;
3959;SDS011;1994;48.640;8.894;2022-09-21T03:04:09;2.93;;;2.43;;
3959;SDS011;1994;48.640;8.894;2022-09-21T03:06:35;4.87;;;3.13;;
3959;SDS011;1994;48.640;8.894;2022-09-21T03:09:01;2.83;;;2.50;;
3959;SDS011;1994;48.640;8.894;2022-09-21T03:11:27;3.47;;;2.80;;
3959;SDS011;1994;48.640;8.894;2022-09-21T03:13:53;5.00;;;2.70;;
3959;SDS011;1994;48.640;8.894;2022-09-21T03:16:19;6.20;;;3.40;;
3959;SDS011;1994;48.640;8.894;2022-09-21T03:18:46;7.93;;;2.67;;
3959;SDS011;1994;48.640;8.894;2022-09-21T03:21:12;3.80;;;2.70;;
3959;SDS011;1994;48.640;8.894;2022-09-21T03:23:39;9.13;;;3.33;;
3959;SDS011;1994;48.640;8.894;2022-09-21T03:26:05;4.50;;;2.67;;
3959;SDS011;1994;48.640;8.894;2022-09-21T03:28:31;5.10;;;2.73;;
3959;SDS011;1994;48.640;8.894;2022-09-21T03:30:57;5.07;;;3.17;;
3959;SDS011;1994;48.640;8.894;2022-09-21T03:33:23;3.87;;;2.63;;
3959;SDS011;1994;48.640;8.894;2022-09-21T03:35:49;4.10;;;2.53;;
3959;SDS011;1994;48.640;8.894;2022-09-21T03:38:17;3.83;;;2.80;;
3959;SDS011;1994;48.640;8.894;2022-09-21T03:40:47;4.57;;;2.80;;
3959;SDS011;1994;48.640;8.894;2022-09-21T03:43:14;4.20;;;2.57;;
3959;SDS011;1994;48.640;8.894;2022-09-21T03:45:41;3.43;;;2.90;;
3959;SDS011;1994;48.640;8.894;2022-09-21T03:48:09;5.27;;;2.40;;
3959;SDS011;1994;48.640;8.894;2022-09-21T03:50:36;4.67;;;2.57;;
3959;SDS011;1994;48.640;8.894;2022-09-21T03:53:03;3.90;;;2.47;;
3959;SDS011;1994;48.640;8.894;2022-09-21T03:55:29;3.00;;;2.03;;
3959;SDS011;1994;48.640;8.894;2022-09-21T03:57:55;4.70;;;2.27;;
3959;SDS011;1994;48.640;8.894;2022-09-21T04:00:21;2.40;;;2.00;;
3959;SDS011;1994;48.640;8.894;2022-09-21T04:02:47;3.33;;;2.40;;
3959;SDS011;1994;48.640;8.894;2022-09-21T04:05:13;4.10;;;2.60;;
3959;SDS011;1994;48.640;8.894;2022-09-21T04:07:41;10.27;;;2.97;;
3959;SDS011;1994;48.640;8.894;2022-09-21T04:10:10;7.93;;;4.40;;
3959;SDS011;1994;48.640;8.894;2022-09-21T04:12:40;3.70;;;2.37;;
3959;SDS011;1994;48.640;8.894;2022-09-21T04:15:08;3.13;;;2.50;;
3959;SDS011;1994;48.640;8.894;2022-09-21T04:17:40;4.90;;;3.63;;
3959;SDS011;1994;48.640;8.894;2022-09-21T04:20:06;6.03;;;3.47;;
3959;SDS011;1994;48.640;8.894;2022-09-21T04:22:34;5.17;;;2.90;;
3959;SDS011;1994;48.640;8.894;2022-09-21T04:25:00;3.10;;;2.80;;
3959;SDS011;1994;48.640;8.894;2022-09-21T04:27:28;6.47;;;2.90;;
3959;SDS011;1994;48.640;8.894;2022-09-21T04:29:56;3.80;;;3.00;;
3959;SDS011;1994;48.640;8.894;2022-09-21T04:32:22;5.73;;;4.13;;
3959;SDS011;1994;48.640;8.894;2022-09-21T04:34:48;4.43;;;3.60;;
3959;SDS011;1994;48.640;8.894;2022-09-21T04:37:14;6.37;;;4.80;;
3959;SDS011;1994;48.640;8.894;2022-09-21T04:39:41;29.83;;;5.13;;
3959;SDS011;1994;48.640;8.894;2022-09-21T04:42:07;5.07;;;3.63;;
3959;SDS011;1994;48.640;8.894;2022-09-21T04:44:34;4.73;;;3.60;;
3959;SDS011;1994;48.640;8.894;2022-09-21T04:47:01;3.93;;;2.50;;
3959;SDS011;1994;48.640;8.894;2022-09-21T04:49:27;4.77;;;3.27;;
3959;SDS011;1994;48.640;8.894;2022-09-21T04:51:52;5.33;;;3.10;;
3959;SDS011;1994;48.640;8.894;2022-09-21T04:54:18;2.93;;;2.50;;
3959;SDS011;1994;48.640;8.894;2022-09-21T04:56:44;4.33;;;2.40;;
3959;SDS011;1994;48.640;8.894;2022-09-21T04:59:10;6.47;;;3.07;;
3959;SDS011;1994;48.640;8.894;2022-09-21T05:01:35;2.53;;;2.10;;
3959;SDS011;1994;48.640;8.894;2022-09-21T05:04:01;4.33;;;2.50;;
3959;SDS011;1994;48.640;8.894;2022-09-21T05:06:27;2.23;;;2.03;;
3959;SDS011;1994;48.640;8.894;2022-09-21T05:08:54;7.13;;;3.60;;
3959;SDS011;1994;48.640;8.894;2022-09-21T05:11:39;5.00;;;3.00;;
3959;SDS011;1994;48.640;8.894;2022-09-21T05:14:05;4.17;;;3.17;;
3959;SDS011;1994;48.640;8.894;2022-09-21T05:16:31;4.60;;;3.97;;
3959;SDS011;1994;48.640;8.894;2022-09-21T05:18:57;15.30;;;4.13;;
3959;SDS011;1994;48.640;8.894;2022-09-21T05:21:23;25.87;;;10.90;;
3959;SDS011;1994;48.640;8.894;2022-09-21T05:23:49;15.10;;;4.93;;
3959;SDS011;1994;48.640;8.894;2022-09-21T05:26:15;6.00;;;4.10;;
3959;SDS011;1994;48.640;8.894;2022-09-21T05:28:41;5.57;;;3.90;;
3959;SDS011;1994;48.640;8.894;2022-09-21T05:31:18;7.73;;;4.33;;
3959;SDS011;1994;48.640;8.894;2022-09-21T05:33:53;5.03;;;3.90;;
3959;SDS011;1994;48.640;8.894;2022-09-21T05:36:51;6.20;;;4.20;;
3959;SDS011;1994;48.640;8.894;2022-09-21T05:39:30;3.97;;;2.53;;
3959;SDS011;1994;48.640;8.894;2022-09-21T05:41:56;2.90;;;2.37;;
3959;SDS011;1994;48.640;8.894;2022-09-21T05:44:22;4.83;;;2.70;;
3959;SDS011;1994;48.640;8.894;2022-09-21T05:47:00;7.43;;;3.27;;
3959;SDS011;1994;48.640;8.894;2022-09-21T05:52:18;17.20;;;10.13;;
3959;SDS011;1994;48.640;8.894;2022-09-21T06:00:18;5.53;;;4.57;;
3959;SDS011;1994;48.640;8.894;2022-09-21T06:03:09;8.37;;;4.43;;
3959;SDS011;1994;48.640;8.894;2022-09-21T06:05:53;8.93;;;4.40;;
3959;SDS011;1994;48.640;8.894;2022-09-21T06:08:19;6.80;;;4.53;;
3959;SDS011;1994;48.640;8.894;2022-09-21T06:10:46;7.93;;;5.10;;
3959;SDS011;1994;48.640;8.894;2022-09-21T06:13:12;12.70;;;5.13;;
3959;SDS011;1994;48.640;8.894;2022-09-21T06:15:38;10.63;;;7.20;;
3959;SDS011;1994;48.640;8.894;2022-09-21T06:18:05;11.10;;;5.80;;
3959;SDS011;1994;48.640;8.894;2022-09-21T06:20:32;30.93;;;10.40;;
3959;SDS011;1994;48.640;8.894;2022-09-21T06:23:08;12.10;;;6.73;;
3959;SDS011;1994;48.640;8.894;2022-09-21T06:25:36;13.30;;;6.00;;
3959;SDS011;1994;48.640;8.894;2022-09-21T06:28:03;22.43;;;6.83;;
3959;SDS011;1994;48.640;8.894;2022-09-21T06:30:32;10.87;;;5.30;;
3959;SDS011;1994;48.640;8.894;2022-09-21T06:33:02;9.63;;;6.03;;
3959;SDS011;1994;48.640;8.894;2022-09-21T06:35:30;11.10;;;6.50;;
3959;SDS011;1994;48.640;8.894;2022-09-21T06:38:02;10.63;;;6.10;;
3959;SDS011;1994;48.640;8.894;2022-09-21T06:40:31;9.73;;;6.73;;
3959;SDS011;1994;48.640;8.894;2022-09-21T06:42:59;12.10;;;7.37;;
3959;SDS011;1994;48.640;8.894;2022-09-21T06:45:27;14.10;;;7.30;;
3959;SDS011;1994;48.640;8.894;2022-09-21T06:47:55;17.17;;;6.80;;
3959;SDS011;1994;48.640;8.894;2022-09-21T06:50:21;12.80;;;6.33;;
3959;SDS011;1994;48.640;8.894;2022-09-21T06:52:47;23.37;;;7.93;;
3959;SDS011;1994;48.640;8.894;2022-09-21T06:55:13;11.33;;;5.70;;
3959;SDS011;1994;48.640;8.894;2022-09-21T06:57:39;10.53;;;6.90;;
3959;SDS011;1994;48.640;8.894;2022-09-21T07:00:06;16.33;;;7.50;;
3959;SDS011;1994;48.640;8.894;2022-09-21T07:02:34;15.23;;;6.93;;
3959;SDS011;1994;48.640;8.894;2022-09-21T07:05:00;12.50;;;6.30;;
3959;SDS011;1994;48.640;8.894;2022-09-21T07:07:28;10.10;;;6.40;;
3959;SDS011;1994;48.640;8.894;2022-09-21T07:09:55;8.37;;;6.03;;
3959;SDS011;1994;48.640;8.894;2022-09-21T07:12:23;13.63;;;7.10;;
3959;SDS011;1994;48.640;8.894;2022-09-21T07:14:50;11.70;;;7.57;;
3959;SDS011;1994;48.640;8.894;2022-09-21T07:17:16;12.43;;;7.27;;
3959;SDS011;1994;48.640;8.894;2022-09-21T07:19:42;11.10;;;6.77;;
3959;SDS011;1994;48.640;8.894;2022-09-21T07:22:08;14.30;;;6.23;;
3959;SDS011;1994;48.640;8.894;2022-09-21T07:24:33;9.50;;;7.20;;
3959;SDS011;1994;48.640;8.894;2022-09-21T07:26:59;14.27;;;6.80;;
3959;SDS011;1994;48.640;8.894;2022-09-21T07:29:25;11.10;;;7.03;;
3959;SDS011;1994;48.640;8.894;2022-09-21T07:31:51;11.77;;;6.30;;
3959;SDS011;1994;48.640;8.894;2022-09-21T07:34:16;11.20;;;5.70;;
3959;SDS011;1994;48.640;8.894;2022-09-21T07:36:42;8.57;;;5.10;;
3959;SDS011;1994;48.640;8.894;2022-09-21T07:39:08;8.70;;;5.10;;
3959;SDS011;1994;48.640;8.894;2022-09-21T07:41:35;13.90;;;6.40;;
3959;SDS011;1994;48.640;8.894;2022-09-21T07:44:01;8.50;;;5.37;;
3959;SDS011;1994;48.640;8.894;2022-09-21T07:46:27;10.57;;;5.10;;
3959;SDS011;1994;48.640;8.894;2022-09-21T07:48:53;5.30;;;4.20;;
3959;SDS011;1994;48.640;8.894;2022-09-21T07:51:21;7.10;;;4.37;;
3959;SDS011;1994;48.640;8.894;2022-09-21T07:53:52;11.83;;;4.20;;
3959;SDS011;1994;48.640;8.894;2022-09-21T07:56:20;10.20;;;3.83;;
3959;SDS011;1994;48.640;8.894;2022-09-21T07:58:46;7.93;;;4.53;;
3959;SDS011;1994;48.640;8.894;2022-09-21T08:01:34;5.60;;;4.17;;
3959;SDS011;1994;48.640;8.894;2022-09-21T08:04:06;6.93;;;4.23;;
3959;SDS011;1994;48.640;8.894;2022-09-21T08:06:34;14.90;;;4.10;;
3959;SDS011;1994;48.640;8.894;2022-09-21T08:09:04;8.43;;;4.40;;
3959;SDS011;1994;48.640;8.894;2022-09-21T08:11:30;5.80;;;3.83;;
3959;SDS011;1994;48.640;8.894;2022-09-21T08:14:01;4.60;;;2.83;;
3959;SDS011;1994;48.640;8.894;2022-09-21T08:16:27;6.20;;;2.93;;
3959;SDS011;1994;48.640;8.894;2022-09-21T08:18:55;13.13;;;3.73;;
3959;SDS011;1994;48.640;8.894;2022-09-21T08:21:21;5.10;;;3.67;;
3959;SDS011;1994;48.640;8.894;2022-09-21T08:23:47;3.73;;;3.30;;
3959;SDS011;1994;48.640;8.894;2022-09-21T08:26:14;4.60;;;3.27;;
3959;SDS011;1994;48.640;8.894;2022-09-21T08:28:43;4.50;;;2.87;;
3959;SDS011;1994;48.640;8.894;2022-09-21T08:31:14;4.57;;;3.13;;
3959;SDS011;1994;48.640;8.894;2022-09-21T08:33:43;6.07;;;3.60;;
3959;SDS011;1994;48.640;8.894;2022-09-21T08:36:10;5.13;;;3.07;;
3959;SDS011;1994;48.640;8.894;2022-09-21T08:38:36;4.93;;;3.00;;
3959;SDS011;1994;48.640;8.894;2022-09-21T08:43:57;2.10;;;2.00;;
3959;SDS011;1994;48.640;8.894;2022-09-21T08:46:33;3.33;;;2.30;;
3959;SDS011;1994;48.640;8.894;2022-09-21T08:49:10;3.57;;;1.53;;
3959;SDS011;1994;48.640;8.894;2022-09-21T08:52:01;5.70;;;1.50;;
3959;SDS011;1994;48.640;8.894;2022-09-21T08:57:19;2.20;;;1.70;;
3959;SDS011;1994;48.640;8.894;2022-09-21T08:59:50;3.00;;;1.57;;
3959;SDS011;1994;48.640;8.894;2022-09-21T09:02:28;2.57;;;1.70;;
3959;SDS011;1994;48.640;8.894;2022-09-21T09:20:06;1.87;;;1.30;;
3959;SDS011;1994;48.640;8.894;2022-09-21T09:22:41;2.20;;;1.60;;
3959;SDS011;1994;48.640;8.894;2022-09-21T09:25:29;3.27;;;1.50;;
3959;SDS011;1994;48.640;8.894;2022-09-21T09:31:09;2.40;;;1.23;;
3959;SDS011;1994;48.640;8.894;2022-09-21T09:34:02;1.53;;;1.30;;
3959;SDS011;1994;48.640;8.894;2022-09-21T09:36:53;1.60;;;1.13;;
3959;SDS011;1994;48.640;8.894;2022-09-21T09:39:32;3.07;;;1.70;;
3959;SDS011;1994;48.640;8.894;2022-09-21T09:42:20;4.10;;;1.20;;
3959;SDS011;1994;48.640;8.894;2022-09-21T09:45:17;2.13;;;1.30;;
3959;SDS011;1994;48.640;8.894;2022-09-21T09:51:27;2.30;;;1.20;;
3959;SDS011;1994;48.640;8.894;2022-09-21T09:53:53;2.30;;;1.20;;
3959;SDS011;1994;48.640;8.894;2022-09-21T09:56:25;1.50;;;1.20;;
3959;SDS011;1994;48.640;8.894;2022-09-21T09:58:52;2.27;;;1.27;;
3959;SDS011;1994;48.640;8.894;2022-09-21T10:04:12;2.10;;;1.20;;
3959;SDS011;1994;48.640;8.894;2022-09-21T10:06:41;1.40;;;1.00;;
3959;SDS011;1994;48.640;8.894;2022-09-21T10:09:27;1.50;;;1.40;;
3959;SDS011;1994;48.640;8.894;2022-09-21T10:14:53;1.40;;;1.30;;
3959;SDS011;1994;48.640;8.894;2022-09-21T10:17:24;2.43;;;1.37;;
3959;SDS011;1994;48.640;8.894;2022-09-21T10:20:00;1.87;;;0.90;;
3959;SDS011;1994;48.640;8.894;2022-09-21T10:22:29;1.50;;;0.90;;
3959;SDS011;1994;48.640;8.894;2022-09-21T10:24:55;1.40;;;1.30;;
3959;SDS011;1994;48.640;8.894;2022-09-21T10:27:33;1.10;;;1.00;;
3959;SDS011;1994;48.640;8.894;2022-09-21T10:30:01;1.20;;;1.10;;
3959;SDS011;1994;48.640;8.894;2022-09-21T10:32:27;1.57;;;1.20;;
3959;SDS011;1994;48.640;8.894;2022-09-21T10:40:26;1.20;;;1.10;;
3959;SDS011;1994;48.640;8.894;2022-09-21T10:42:55;2.90;;;1.10;;
3959;SDS011;1994;48.640;8.894;2022-09-21T10:45:25;1.90;;;1.30;;
3959;SDS011;1994;48.640;8.894;2022-09-21T10:55:37;7.43;;;1.53;;
3959;SDS011;1994;48.640;8.894;2022-09-21T10:58:19;1.17;;;1.07;;
3959;SDS011;1994;48.640;8.894;2022-09-21T11:00:47;4.50;;;1.33;;
3959;SDS011;1994;48.640;8.894;2022-09-21T11:06:15;1.27;;;1.17;;
3959;SDS011;1994;48.640;8.894;2022-09-21T11:12:02;1.67;;;1.30;;
3959;SDS011;1994;48.640;8.894;2022-09-21T11:19:51;1.40;;;1.00;;
3959;SDS011;1994;48.640;8.894;2022-09-21T11:25:40;2.23;;;1.77;;
3959;SDS011;1994;48.640;8.894;2022-09-21T11:28:20;11.07;;;1.53;;
3959;SDS011;1994;48.640;8.894;2022-09-21T11:41:43;2.07;;;1.33;;
3959;SDS011;1994;48.640;8.894;2022-09-21T11:52:50;1.10;;;1.00;;
3959;SDS011;1994;48.640;8.894;2022-09-21T12:12:48;2.00;;;1.67;;
3959;SDS011;1994;48.640;8.894;2022-09-21T12:18:13;5.00;;;1.40;;
3959;SDS011;1994;48.640;8.894;2022-09-21T12:23:40;1.63;;;1.10;;
3959;SDS011;1994;48.640;8.894;2022-09-21T12:26:17;1.87;;;1.20;;
3959;SDS011;1994;48.640;8.894;2022-09-21T12:29:02;2.13;;;1.30;;
3959;SDS011;1994;48.640;8.894;2022-09-21T12:34:53;3.80;;;2.17;;
3959;SDS011;1994;48.640;8.894;2022-09-21T12:37:44;4.30;;;1.30;;
3959;SDS011;1994;48.640;8.894;2022-09-21T12:40:45;4.10;;;1.33;;
3959;SDS011;1994;48.640;8.894;2022-09-21T12:43:39;1.57;;;1.10;;
3959;SDS011;1994;48.640;8.894;2022-09-21T12:46:24;1.30;;;1.00;;
3959;SDS011;1994;48.640;8.894;2022-09-21T12:49:18;1.47;;;1.20;;
3959;SDS011;1994;48.640;8.894;2022-09-21T12:51:54;1.63;;;1.20;;
3959;SDS011;1994;48.640;8.894;2022-09-21T13:00:13;7.17;;;3.00;;
3959;SDS011;1994;48.640;8.894;2022-09-21T13:02:47;6.40;;;2.80;;
3959;SDS011;1994;48.640;8.894;2022-09-21T13:10:47;2.10;;;1.00;;
3959;SDS011;1994;48.640;8.894;2022-09-21T13:13:38;2.00;;;1.80;;
3959;SDS011;1994;48.640;8.894;2022-09-21T13:16:29;1.33;;;0.90;;
3959;SDS011;1994;48.640;8.894;2022-09-21T13:18:59;2.07;;;1.03;;
3959;SDS011;1994;48.640;8.894;2022-09-21T13:21:29;1.00;;;0.90;;
3959;SDS011;1994;48.640;8.894;2022-09-21T13:26:41;1.20;;;1.10;;
3959;SDS011;1994;48.640;8.894;2022-09-21T13:34:24;1.33;;;1.20;;
3959;SDS011;1994;48.640;8.894;2022-09-21T13:47:38;4.03;;;2.07;;
3959;SDS011;1994;48.640;8.894;2022-09-21T13:50:30;6.63;;;1.43;;
3959;SDS011;1994;48.640;8.894;2022-09-21T13:53:22;1.47;;;1.37;;
3959;SDS011;1994;48.640;8.894;2022-09-21T13:56:06;5.70;;;2.70;;
3959;SDS011;1994;48.640;8.894;2022-09-21T13:58:46;1.63;;;1.17;;
3959;SDS011;1994;48.640;8.894;2022-09-21T14:01:23;3.27;;;1.43;;
3959;SDS011;1994;48.640;8.894;2022-09-21T14:04:01;1.73;;;1.43;;
3959;SDS011;1994;48.640;8.894;2022-09-21T14:06:42;6.00;;;1.20;;
3959;SDS011;1994;48.640;8.894;2022-09-21T14:09:26;1.10;;;1.00;;
3959;SDS011;1994;48.640;8.894;2022-09-21T14:11:59;1.13;;;0.90;;
3959;SDS011;1994;48.640;8.894;2022-09-21T14:14:35;0.87;;;0.87;;
3959;SDS011;1994;48.640;8.894;2022-09-21T14:20:00;1.20;;;1.10;;
3959;SDS011;1994;48.640;8.894;2022-09-21T14:27:49;2.13;;;0.97;;
3959;SDS011;1994;48.640;8.894;2022-09-21T14:30:23;1.17;;;1.07;;
3959;SDS011;1994;48.640;8.894;2022-09-21T14:35:31;4.73;;;1.20;;
3959;SDS011;1994;48.640;8.894;2022-09-21T14:38:06;1.47;;;1.07;;
3959;SDS011;1994;48.640;8.894;2022-09-21T14:41:00;1.00;;;0.90;;
3959;SDS011;1994;48.640;8.894;2022-09-21T14:43:31;1.10;;;1.00;;
3959;SDS011;1994;48.640;8.894;2022-09-21T14:52:48;1.43;;;1.33;;
3959;SDS011;1994;48.640;8.894;2022-09-21T15:16:42;4.00;;;3.10;;
3959;SDS011;1994;48.640;8.894;2022-09-21T15:19:28;9.40;;;5.47;;
3959;SDS011;1994;48.640;8.894;2022-09-21T15:22:14;6.23;;;3.93;;
3959;SDS011;1994;48.640;8.894;2022-09-21T15:27:20;2.30;;;1.50;;
3959;SDS011;1994;48.640;8.894;2022-09-21T15:29:57;3.00;;;1.80;;
3959;SDS011;1994;48.640;8.894;2022-09-21T15:37:44;7.70;;;3.40;;
3959;SDS011;1994;48.640;8.894;2022-09-21T15:45:48;2.13;;;0.97;;
3959;SDS011;1994;48.640;8.894;2022-09-21T15:48:26;5.33;;;2.20;;
3959;SDS011;1994;48.640;8.894;2022-09-21T15:50:59;7.00;;;3.63;;
3959;SDS011;1994;48.640;8.894;2022-09-21T15:53:54;2.50;;;2.03;;
3959;SDS011;1994;48.640;8.894;2022-09-21T15:56:38;8.53;;;3.30;;
3959;SDS011;1994;48.640;8.894;2022-09-21T15:59:09;1.93;;;1.37;;
3959;SDS011;1994;48.640;8.894;2022-09-21T16:01:42;3.20;;;1.80;;
3959;SDS011;1994;48.640;8.894;2022-09-21T16:04:12;3.97;;;1.70;;
3959;SDS011;1994;48.640;8.894;2022-09-21T16:06:44;3.23;;;1.57;;
3959;SDS011;1994;48.640;8.894;2022-09-21T16:11:55;2.07;;;1.10;;
3959;SDS011;1994;48.640;8.894;2022-09-21T16:14:22;1.60;;;1.50;;
3959;SDS011;1994;48.640;8.894;2022-09-21T16:20:03;2.20;;;1.30;;
3959;SDS011;1994;48.640;8.894;2022-09-21T16:22:45;1.20;;;1.10;;
3959;SDS011;1994;48.640;8.894;2022-09-21T16:25:22;1.10;;;1.00;;
3959;SDS011;1994;48.640;8.894;2022-09-21T16:27:55;2.47;;;1.20;;
3959;SDS011;1994;48.640;8.894;2022-09-21T16:38:41;2.03;;;1.57;;
3959;SDS011;1994;48.640;8.894;2022-09-21T16:41:07;2.90;;;1.80;;
3959;SDS011;1994;48.640;8.894;2022-09-21T16:43:37;3.83;;;2.37;;
3959;SDS011;1994;48.640;8.894;2022-09-21T16:46:07;4.90;;;2.20;;
3959;SDS011;1994;48.640;8.894;2022-09-21T16:48:34;2.10;;;1.90;;
3959;SDS011;1994;48.640;8.894;2022-09-21T16:51:00;1.43;;;1.33;;
3959;SDS011;1994;48.640;8.894;2022-09-21T16:53:26;1.70;;;1.60;;
3959;SDS011;1994;48.640;8.894;2022-09-21T16:55:52;5.37;;;3.00;;
3959;SDS011;1994;48.640;8.894;2022-09-21T16:58:19;4.40;;;1.90;;
3959;SDS011;1994;48.640;8.894;2022-09-21T17:00:47;2.30;;;1.90;;
3959;SDS011;1994;48.640;8.894;2022-09-21T17:03:17;2.00;;;1.90;;
3959;SDS011;1994;48.640;8.894;2022-09-21T17:05:44;2.50;;;2.30;;
3959;SDS011;1994;48.640;8.894;2022-09-21T17:08:10;2.30;;;2.10;;
3959;SDS011;1994;48.640;8.894;2022-09-21T17:10:38;2.63;;;2.43;;
3959;SDS011;1994;48.640;8.894;2022-09-21T17:13:08;2.70;;;2.30;;
3959;SDS011;1994;48.640;8.894;2022-09-21T17:15:34;4.70;;;3.33;;
3959;SDS011;1994;48.640;8.894;2022-09-21T17:18:05;2.67;;;2.47;;
3959;SDS011;1994;48.640;8.894;2022-09-21T17:20:35;3.33;;;2.63;;
3959;SDS011;1994;48.640;8.894;2022-09-21T17:23:04;3.80;;;2.63;;
3959;SDS011;1994;48.640;8.894;2022-09-21T17:25:30;4.60;;;2.60;;
3959;SDS011;1994;48.640;8.894;2022-09-21T17:27:58;4.00;;;2.73;;
3959;SDS011;1994;48.640;8.894;2022-09-21T17:30:36;3.47;;;3.00;;
3959;SDS011;1994;48.640;8.894;2022-09-21T17:33:02;6.87;;;3.40;;
3959;SDS011;1994;48.640;8.894;2022-09-21T17:35:29;9.47;;;5.53;;
3959;SDS011;1994;48.640;8.894;2022-09-21T17:38:06;6.50;;;5.23;;
3959;SDS011;1994;48.640;8.894;2022-09-21T17:40:32;9.80;;;7.40;;
3959;SDS011;1994;48.640;8.894;2022-09-21T17:43:44;14.40;;;8.80;;
3959;SDS011;1994;48.640;8.894;2022-09-21T17:49:26;6.40;;;4.43;;
3959;SDS011;1994;48.640;8.894;2022-09-21T17:51:52;3.43;;;3.13;;
3959;SDS011;1994;48.640;8.894;2022-09-21T17:54:36;5.80;;;3.20;;
3959;SDS011;1994;48.640;8.894;2022-09-21T17:57:47;7.10;;;3.20;;
3959;SDS011;1994;48.640;8.894;2022-09-21T18:00:25;8.13;;;4.30;;
3959;SDS011;1994;48.640;8.894;2022-09-21T18:05:53;9.00;;;6.40;;
3959;SDS011;1994;48.640;8.894;2022-09-21T18:08:24;8.57;;;6.00;;
3959;SDS011;1994;48.640;8.894;2022-09-21T18:13:53;4.10;;;3.33;;
3959;SDS011;1994;48.640;8.894;2022-09-21T18:16:26;38.47;;;18.10;;
3959;SDS011;1994;48.640;8.894;2022-09-21T18:19:04;23.80;;;13.37;;
3959;SDS011;1994;48.640;8.894;2022-09-21T18:22:00;20.40;;;12.73;;
3959;SDS011;1994;48.640;8.894;2022-09-21T18:24:36;31.17;;;19.77;;
3959;SDS011;1994;48.640;8.894;2022-09-21T18:27:03;35.13;;;21.37;;
3959;SDS011;1994;48.640;8.894;2022-09-21T18:29:30;39.10;;;21.50;;
3959;SDS011;1994;48.640;8.894;2022-09-21T18:38:16;5.80;;;4.23;;
3959;SDS011;1994;48.640;8.894;2022-09-21T18:41:15;5.23;;;2.60;;
3959;SDS011;1994;48.640;8.894;2022-09-21T18:44:11;3.00;;;2.70;;
3959;SDS011;1994;48.640;8.894;2022-09-21T18:47:13;2.40;;;2.20;;
3959;SDS011;1994;48.640;8.894;2022-09-21T18:50:21;2.70;;;2.50;;
3959;SDS011;1994;48.640;8.894;2022-09-21T18:56:16;13.37;;;7.40;;
3959;SDS011;1994;48.640;8.894;2022-09-21T18:58:42;7.47;;;5.20;;
3959;SDS011;1994;48.640;8.894;2022-09-21T19:01:11;6.30;;;5.67;;
3959;SDS011;1994;48.640;8.894;2022-09-21T19:03:39;5.80;;;5.17;;
3959;SDS011;1994;48.640;8.894;2022-09-21T19:15:13;4.23;;;3.13;;
3959;SDS011;1994;48.640;8.894;2022-09-21T19:20:51;4.93;;;3.60;;
3959;SDS011;1994;48.640;8.894;2022-09-21T19:31:59;8.50;;;4.97;;
3959;SDS011;1994;48.640;8.894;2022-09-21T19:34:25;7.47;;;5.40;;
3959;SDS011;1994;48.640;8.894;2022-09-21T19:36:52;11.10;;;5.20;;
3959;SDS011;1994;48.640;8.894;2022-09-21T19:39:21;9.27;;;6.90;;
3959;SDS011;1994;48.640;8.894;2022-09-21T19:44:36;8.77;;;5.80;;
3959;SDS011;1994;48.640;8.894;2022-09-21T19:47:29;10.70;;;5.63;;
3959;SDS011;1994;48.640;8.894;2022-09-21T19:50:05;5.37;;;4.83;;
3959;SDS011;1994;48.640;8.894;2022-09-21T19:52:57;14.20;;;8.40;;
3959;SDS011;1994;48.640;8.894;2022-09-21T19:55:43;6.50;;;4.57;;
3959;SDS011;1994;48.640;8.894;2022-09-21T19:58:28;5.00;;;4.00;;
3959;SDS011;1994;48.640;8.894;2022-09-21T20:01:15;3.10;;;2.60;;
3959;SDS011;1994;48.640;8.894;2022-09-21T20:03:45;3.37;;;2.80;;
3959;SDS011;1994;48.640;8.894;2022-09-21T20:09:15;3.00;;;1.90;;
3959;SDS011;1994;48.640;8.894;2022-09-21T20:12:08;4.17;;;2.63;;
3959;SDS011;1994;48.640;8.894;2022-09-21T20:14:54;1.50;;;1.40;;
3959;SDS011;1994;48.640;8.894;2022-09-21T20:20:22;2.47;;;1.67;;
3959;SDS011;1994;48.640;8.894;2022-09-21T20:22:50;4.57;;;2.30;;
3959;SDS011;1994;48.640;8.894;2022-09-21T20:25:25;6.73;;;5.23;;
3959;SDS011;1994;48.640;8.894;2022-09-21T20:27:59;7.20;;;5.23;;
3959;SDS011;1994;48.640;8.894;2022-09-21T20:30:28;5.57;;;4.20;;
3959;SDS011;1994;48.640;8.894;2022-09-21T20:33:00;4.83;;;3.80;;
3959;SDS011;1994;48.640;8.894;2022-09-21T20:35:33;2.50;;;2.30;;
3959;SDS011;1994;48.640;8.894;2022-09-21T20:37:59;3.33;;;2.13;;